Time;durP1;ratioP1;P1;durP2;ratioP2;P2;SDS_P1;SDS_P2;PMS_P1;PMS_P2;Temp;Humidity;BMP_temperature;BMP_pressure;BME280_temperature;BME280_humidity;BME280_pressure;Samples;Min_cycle;Max_cycle;Signal;HPM_P1;HPM_P2
2021/08/14 06:34:53;;;;;;;15.65;7.25;;;19.30;99.90;;;21.05;73.70;101071.75;6196783;23;20040;-86
2021/08/14 06:38:09;;;;;;;17.52;7.82;;;19.40;99.90;;;21.07;71.60;101077.81;6148011;23;20037;-86
2021/08/14 06:40:56;;;;;;;17.75;7.40;;;19.60;99.90;;;21.30;70.71;101080.06;6170178;23;20021;-88
2021/08/14 06:43:50;;;;;;;15.82;7.47;;;19.70;99.90;;;21.20;70.16;101076.09;6143062;23;20036;-88
2021/08/14 06:46:53;;;;;;;17.20;7.15;;;19.80;99.90;;;21.77;70.48;101073.44;6111415;23;20013;-87
2021/08/14 06:49:33;;;;;;;19.08;7.45;;;20.00;99.90;;;22.01;70.41;101083.75;6121318;23;20013;-86
2021/08/14 06:52:42;;;;;;;17.17;7.85;;;20.30;99.90;;;22.28;66.64;101080.97;6108789;23;20009;-86
2021/08/14 06:55:12;;;;;;;20.48;8.63;;;20.50;99.90;;;22.23;65.62;101078.56;6165158;23;20013;-88
2021/08/14 06:58:22;;;;;;;18.08;8.60;;;20.60;99.90;;;22.31;66.49;101076.44;6146968;23;20021;-87
2021/08/14 07:01:24;;;;;;;16.08;8.25;;;20.70;99.90;;;22.90;65.36;101073.91;6122179;23;20013;-89
2021/08/14 07:04:25;;;;;;;21.35;8.52;;;21.00;99.90;;;22.68;63.27;101070.63;6143004;23;20017;-88
2021/08/14 07:07:04;;;;;;;13.60;7.25;;;21.20;99.90;;;22.44;64.42;101071.78;6131495;23;20421;-91
2021/08/14 07:09:31;;;;;;;20.90;8.52;;;21.20;99.90;;;22.22;64.26;101071.25;6168620;23;20018;-88
2021/08/14 07:11:57;;;;;;;18.42;8.10;;;21.10;99.90;;;22.25;65.50;101073.25;6144055;23;20001;-89
2021/08/14 07:14:23;;;;;;;19.25;7.18;;;21.00;99.90;;;22.41;64.47;101059.19;6169925;23;20001;-89
2021/08/14 07:16:53;;;;;;;20.75;7.60;;;21.10;99.90;;;23.13;62.84;101067.41;6167644;23;20499;-87
2021/08/14 07:20:03;;;;;;;14.80;5.95;;;21.40;99.90;;;23.42;59.50;101069.34;6141141;23;20013;-88
2021/08/14 07:23:09;;;;;;;12.77;5.72;;;21.70;99.90;;;23.46;58.95;101070.09;6140326;23;20148;-88
2021/08/14 07:25:35;;;;;;;10.93;5.10;;;21.90;99.90;;;23.77;59.13;101067.03;6131624;23;20057;-88
2021/08/14 07:28:01;;;;;;;15.70;5.57;;;22.10;99.90;;;23.86;57.08;101061.53;6175711;23;20032;-88
2021/08/14 07:30:27;;;;;;;14.77;5.20;;;22.20;99.90;;;24.14;56.99;101064.63;6179458;23;20045;-88
2021/08/14 07:32:53;;;;;;;10.98;4.50;;;22.40;99.90;;;24.63;56.17;101065.53;6177084;23;20013;-88
2021/08/14 07:35:19;;;;;;;11.20;4.68;;;22.60;99.90;;;24.93;54.97;101061.56;6177242;23;20024;-89
2021/08/14 07:37:49;;;;;;;10.70;5.03;;;22.90;99.90;;;24.53;54.40;101068.66;6170736;23;20071;-88
2021/08/14 07:40:25;;;;;;;10.00;4.25;;;22.90;99.90;;;25.08;53.64;101056.28;6163205;23;20031;-89
2021/08/14 08:06:56;;;;;;;10.73;3.78;;;23.30;99.90;;;24.65;51.12;101045.91;6150210;23;20025;-88
2021/08/14 08:10:46;;;;;;;9.20;3.40;;;23.40;99.90;;;24.78;51.97;101050.91;6136462;23;20037;-88
2021/08/14 08:14:03;;;;;;;11.18;3.70;;;23.30;99.90;;;25.62;49.36;101054.41;6105106;23;20017;-85
2021/08/14 08:16:37;;;;;;;8.60;3.35;;;23.70;99.90;;;26.43;48.15;101056.09;6126634;23;20169;-85
2021/08/14 08:19:08;;;;;;;9.00;3.10;;;24.20;99.90;;;26.67;46.93;101057.38;6104845;23;20437;-87
2021/08/14 08:21:41;;;;;;;8.57;3.78;;;24.60;98.20;;;26.52;46.40;101059.09;6106518;23;20006;-85
2021/08/14 08:24:07;;;;;;;6.63;3.28;;;24.70;95.20;;;26.04;46.97;101060.16;6136912;23;20002;-88
2021/08/14 08:26:33;;;;;;;9.27;4.15;;;24.60;94.00;;;25.94;47.06;101052.69;6162103;23;20009;-86
2021/08/14 08:29:47;;;;;;;13.35;3.95;;;24.50;93.70;;;26.83;46.96;101054.41;6135517;23;20053;-86
2021/08/14 08:32:20;;;;;;;12.18;4.40;;;24.70;96.20;;;27.02;45.19;101059.06;6085585;23;20017;-87
2021/08/14 08:34:51;;;;;;;15.00;4.57;;;25.00;92.80;;;27.13;45.86;101059.50;6162000;23;20006;-86
2021/08/14 08:37:17;;;;;;;13.50;4.25;;;25.10;93.20;;;27.83;44.36;101054.56;6137538;23;20005;-85
2021/08/14 08:39:45;;;;;;;10.98;3.92;;;25.50;92.00;;;27.70;44.49;101049.69;6162925;23;20016;-87
2021/08/14 08:42:20;;;;;;;9.55;4.10;;;25.70;90.60;;;27.27;43.98;101054.53;6163854;23;20021;-86
2021/08/14 08:45:20;;;;;;;11.15;4.10;;;25.70;87.60;;;26.40;45.66;101057.81;6140299;23;20043;-86
2021/08/14 08:48:03;;;;;;;15.15;4.00;;;25.30;87.30;;;25.66;47.56;101049.38;6167094;23;20010;-87
2021/08/14 08:51:17;;;;;;;8.40;3.65;;;24.80;88.20;;;25.91;48.02;101053.59;6140021;23;20013;-88
2021/08/14 08:57:38;;;;;;;11.32;3.58;;;24.60;90.30;;;26.66;45.62;101050.84;6159305;23;20006;-88
2021/08/14 09:00:27;;;;;;;8.52;3.58;;;25.00;90.10;;;26.42;45.18;101043.84;6165701;23;20164;-89
2021/08/14 09:03:48;;;;;;;8.25;3.45;;;25.10;87.60;;;26.89;43.90;101031.69;6143325;23;20017;-88
2021/08/14 09:06:20;;;;;;;9.10;3.63;;;25.20;82.80;;;27.28;42.19;101034.00;6144048;23;20010;-89
2021/08/14 09:09:24;;;;;;;;;;;;;;;;;;;;;
2021/08/14 09:12:06;;;;;;;8.02;3.08;;;25.80;85.00;;;28.09;42.66;101035.94;6137082;23;20475;-92
2021/08/14 09:14:54;;;;;;;12.82;3.50;;;26.10;82.80;;;28.37;41.59;101037.69;6135942;23;20010;-88
2021/08/14 09:17:34;;;;;;;7.40;2.97;;;26.40;80.00;;;28.73;41.36;101032.13;6159387;23;20391;-87
2021/08/14 09:20:35;;;;;;;9.55;3.80;;;26.60;80.00;;;28.69;40.20;101040.09;6159471;23;20013;-85
2021/08/14 09:23:44;;;;;;;6.80;3.20;;;26.70;76.10;;;28.14;41.82;101029.59;6161525;23;20009;-88
2021/08/14 09:26:14;;;;;;;8.05;2.88;;;26.50;76.10;;;28.30;40.41;101026.47;6140461;23;20006;-90
2021/08/14 09:29:00;;;;;;;9.75;3.15;;;26.50;73.80;;;28.47;41.39;101030.72;6140372;23;20037;-87
2021/08/14 09:31:55;;;;;;;11.82;3.05;;;26.60;76.60;;;28.30;40.06;101025.69;6164604;23;20014;-87
2021/08/14 09:34:37;;;;;;;9.98;3.22;;;26.50;73.50;;;28.23;40.69;101023.88;6167744;23;20065;-90
2021/08/14 09:37:14;;;;;;;8.00;3.00;;;26.40;73.60;;;28.82;41.34;101016.97;6166827;23;20008;-86
2021/08/14 09:40:10;;;;;;;8.68;3.20;;;26.70;76.50;;;29.15;40.17;101017.19;6139049;23;20049;-86
2021/08/14 09:42:59;;;;;;;9.82;3.10;;;27.00;75.10;;;29.54;37.91;101018.38;6165370;23;20344;-90
2021/08/14 09:45:36;;;;;;;8.52;3.00;;;27.20;70.30;;;29.02;39.10;101007.91;6141521;23;20014;-86
2021/08/14 09:48:32;;;;;;;10.30;3.17;;;27.10;70.00;;;29.39;37.71;101006.69;6145933;23;20016;-87
2021/08/14 09:51:24;;;;;;;8.00;3.35;;;27.20;69.20;;;28.85;38.44;101003.72;6166901;23;20037;-86
2021/08/14 09:54:15;;;;;;;10.57;3.10;;;27.10;67.60;;;28.65;39.37;101012.72;6170313;23;20010;-87
2021/08/14 09:57:12;;;;;;;7.60;3.10;;;27.00;68.90;;;28.00;38.46;101004.28;6166657;23;20002;-89
2021/08/14 10:00:02;;;;;;;6.45;2.75;;;26.70;65.90;;;28.62;39.69;101005.84;6165428;23;20076;-86
2021/08/14 10:05:54;;;;;;;7.80;2.70;;;26.90;69.40;;;29.20;37.88;100991.47;6149819;23;20308;-86
2021/08/14 10:08:29;;;;;;;8.48;2.88;;;27.10;68.30;;;29.40;37.16;100993.91;6170127;23;20037;-88
2021/08/14 10:11:31;;;;;;;8.10;3.55;;;27.30;66.70;;;29.63;36.93;101001.88;6172114;23;20006;-86
2021/08/14 10:14:08;;;;;;;10.88;2.80;;;27.40;66.80;;;29.25;35.39;100993.72;6135937;23;20002;-88
2021/08/14 10:16:58;;;;;;;8.93;3.38;;;27.30;62.10;;;29.38;35.92;101001.41;6166437;23;20010;-86
2021/08/14 10:23:29;;;;;;;9.95;3.05;;;27.30;63.00;;;28.84;35.97;100994.28;6167564;23;20072;-90
2021/08/14 10:33:50;;;;;;;6.75;2.83;;;26.80;63.30;;;28.43;36.85;100971.78;6191445;23;20028;-87
2021/08/14 10:36:40;;;;;;;8.40;2.80;;;26.90;62.20;;;28.53;37.54;100974.22;6163317;23;20001;-87
2021/08/14 10:44:23;;;;;;;10.25;2.95;;;26.80;63.30;;;28.55;36.54;100970.88;6146738;23;20470;-89
2021/08/14 10:47:45;;;;;;;7.50;2.80;;;27.00;61.80;;;29.24;35.59;100974.88;6121578;23;20013;-86
2021/08/14 10:54:13;;;;;;;6.97;2.67;;;27.50;62.50;;;29.57;37.20;100963.47;6164121;23;20028;-87
2021/08/14 10:57:18;;;;;;;6.97;2.72;;;27.70;63.50;;;28.21;36.21;100963.25;6138918;23;20006;-87
2021/08/14 11:00:27;;;;;;;8.52;2.97;;;27.20;59.10;;;28.46;37.38;100970.84;6139373;23;20010;-85
2021/08/14 11:03:06;;;;;;;5.97;2.65;;;26.90;61.70;;;29.31;37.43;100962.25;6140684;23;20014;-84
2021/08/14 11:05:40;;;;;;;5.47;2.45;;;27.20;64.30;;;29.29;33.01;100965.59;6138313;23;20016;-86
2021/08/14 11:09:09;;;;;;;6.72;2.28;;;27.50;56.90;;;30.00;33.44;100961.50;6165061;23;20072;-86
2021/08/14 11:11:37;;;;;;;6.88;2.75;;;27.90;58.20;;;30.16;32.04;100953.28;6134370;23;20013;-88
2021/08/14 11:18:14;;;;;;;7.78;2.30;;;28.10;54.00;;;29.35;31.06;100942.72;6163694;23;20044;-88
2021/08/14 11:21:54;;;;;;;5.13;2.38;;;27.90;54.50;;;30.18;34.16;100944.16;6136709;23;20013;-89
2021/08/14 11:25:37;;;;;;;6.65;2.38;;;28.10;56.80;;;29.69;32.58;100939.50;6080478;23;20440;-91
2021/08/14 11:36:09;;;;;;;5.97;2.45;;;27.90;54.70;;;29.82;33.50;100933.53;6066344;23;20451;-88
2021/08/14 11:38:42;;;;;;;5.68;2.60;;;28.00;56.60;;;30.40;33.22;100941.03;6132432;23;20016;-87
2021/08/14 11:41:21;;;;;;;5.65;2.72;;;28.30;57.90;;;30.66;32.34;100942.97;6131558;23;20081;-88
2021/08/14 11:43:47;;;;;;;5.00;2.42;;;28.50;56.20;;;30.11;31.55;100933.78;6156046;23;20009;-89
2021/08/14 11:46:22;;;;;;;6.25;2.53;;;28.60;53.50;;;29.97;32.41;100942.31;6133122;23;20017;-89
2021/08/14 11:48:49;;;;;;;6.90;2.70;;;28.40;54.40;;;29.46;33.00;100940.19;6132644;23;20009;-89
2021/08/14 11:51:33;;;;;;;5.50;2.55;;;28.20;54.50;;;29.59;33.56;100946.56;6132405;23;20021;-86
2021/08/14 11:54:04;;;;;;;6.10;2.20;;;28.10;55.90;;;29.68;33.29;100935.00;6157997;23;20402;-87
2021/08/14 11:56:31;;;;;;;6.65;2.60;;;28.00;56.50;;;29.96;31.56;100932.09;6133310;23;20006;-89
2021/08/14 11:58:57;;;;;;;6.40;2.65;;;28.30;54.00;;;29.83;33.24;100926.50;6134679;23;20009;-87
2021/08/14 12:01:27;;;;;;;5.30;2.85;;;28.30;55.30;;;29.68;33.32;100940.78;6134711;23;20014;-90
2021/08/14 12:04:04;;;;;;;5.15;2.60;;;28.20;55.00;;;29.94;31.89;100934.66;6143365;23;20119;-88
2021/08/14 12:06:35;;;;;;;6.25;2.42;;;28.20;54.20;;;29.98;30.75;100935.28;6126318;23;20013;-87
2021/08/14 12:09:06;;;;;;;7.30;2.67;;;28.20;53.70;;;29.69;31.69;100930.06;6135668;23;20005;-87
2021/08/14 12:11:34;;;;;;;5.45;2.55;;;28.20;53.20;;;29.18;31.75;100930.75;6160864;23;20013;-85
2021/08/14 12:14:29;;;;;;;5.90;2.85;;;27.90;52.80;;;29.44;32.63;100922.59;6135415;23;20006;-85
2021/08/14 12:29:13;;;;;;;6.55;2.70;;;28.20;54.80;;;29.57;31.50;100925.28;6161650;23;20076;-84
2021/08/14 12:31:53;;;;;;;4.35;2.45;;;28.10;52.30;;;29.33;32.11;100922.28;6134238;23;20017;-86
2021/08/14 12:34:51;;;;;;;5.68;2.15;;;28.00;52.90;;;29.80;32.83;100910.19;6134286;23;20044;-86
2021/08/14 12:37:17;;;;;;;4.68;2.45;;;28.20;55.30;;;29.40;31.99;100907.56;6142675;23;20014;-83
2021/08/14 12:40:04;;;;;;;5.15;2.20;;;28.10;52.80;;;29.17;33.06;100906.13;6135744;23;20016;-87
2021/08/14 12:42:36;;;;;;;7.50;2.50;;;27.90;55.10;;;29.41;33.13;100903.41;6160191;23;20005;-85
2021/08/14 12:45:19;;;;;;;6.57;2.60;;;27.90;54.30;;;29.86;33.20;100898.84;6132463;23;20009;-85
2021/08/14 12:47:49;;;;;;;7.03;2.40;;;28.10;55.40;;;30.36;32.99;100897.97;6159475;23;20005;-86
2021/08/14 12:50:27;;;;;;;7.03;3.05;;;28.40;55.80;;;29.55;32.44;100899.06;6160630;23;20009;-88
2021/08/14 12:53:47;;;;;;;4.38;2.10;;;28.40;53.30;;;29.80;33.49;100896.59;6141276;23;20009;-92
2021/08/14 12:56:38;;;;;;;4.72;2.47;;;28.30;55.20;;;30.16;32.76;100894.88;6159005;23;20455;-86
2021/08/14 12:59:05;;;;;;;6.37;2.50;;;28.40;54.40;;;29.96;31.50;100909.06;6132596;23;20444;-86
2021/08/14 13:01:34;;;;;;;5.72;2.80;;;28.40;52.60;;;29.67;32.14;100892.31;6132496;23;20036;-88
2021/08/14 13:04:03;;;;;;;7.53;2.28;;;28.30;53.40;;;29.88;31.98;100893.41;6133709;23;20072;-87
2021/08/14 13:06:29;;;;;;;4.75;2.20;;;28.30;53.20;;;30.16;32.91;100894.88;6133710;23;20014;-86
2021/08/14 13:08:55;;;;;;;10.95;2.65;;;28.30;54.70;;;29.78;33.24;100883.97;6160189;23;20088;-86
2021/08/14 13:11:23;;;;;;;5.18;2.35;;;28.30;54.40;;;29.87;31.00;100886.84;6132284;23;20092;-87
2021/08/14 13:13:56;;;;;;;6.65;3.03;;;28.30;52.20;;;30.09;33.37;100895.22;6133358;23;20382;-87
2021/08/14 13:16:22;;;;;;;7.25;2.60;;;28.30;55.30;;;30.09;32.70;100893.13;6134907;23;20006;-86
2021/08/14 13:18:50;;;;;;;6.53;2.63;;;28.40;54.40;;;29.80;33.64;100892.91;6134440;23;20013;-86
2021/08/14 13:21:31;;;;;;;7.63;2.35;;;28.30;55.00;;;29.77;33.86;100896.75;6133775;23;20017;-86
2021/08/14 13:24:02;;;;;;;7.07;2.15;;;28.20;55.40;;;29.92;33.05;100891.16;6132229;23;20009;-88
2021/08/14 13:26:30;;;;;;;8.63;2.50;;;28.20;54.80;;;29.65;32.84;100887.03;6134792;23;20009;-86
2021/08/14 13:28:57;;;;;;;13.35;3.63;;;28.10;54.10;;;29.40;33.76;100890.31;6159574;23;20015;-90
2021/08/14 13:31:23;;;;;;;6.07;2.90;;;28.00;55.10;;;29.79;33.53;100885.56;6135127;23;20088;-88
2021/08/14 13:33:50;;;;;;;7.05;2.47;;;28.10;55.50;;;30.17;33.46;100891.50;6159787;23;20428;-85
2021/08/14 13:36:17;;;;;;;7.50;2.45;;;28.30;55.70;;;29.86;34.57;100893.91;6134691;23;20033;-86
2021/08/14 13:38:43;;;;;;;4.85;2.33;;;28.20;56.10;;;29.59;33.76;100896.81;6135879;23;20010;-87
2021/08/14 13:41:09;;;;;;;5.57;2.67;;;28.10;54.90;;;29.84;33.15;100893.56;6136936;23;20347;-86
2021/08/14 13:43:36;;;;;;;5.40;2.22;;;28.10;54.70;;;29.71;32.68;100899.50;6160726;23;20155;-84
2021/08/14 13:46:03;;;;;;;9.07;2.40;;;28.20;54.20;;;29.59;33.68;100889.00;6160614;23;20169;-86
2021/08/14 13:48:29;;;;;;;3.65;2.50;;;28.10;54.80;;;28.83;34.87;100892.09;6159793;23;20005;-88
2021/08/14 13:50:55;;;;;;;4.18;2.15;;;27.80;55.50;;;29.33;35.46;100898.47;6162181;23;20010;-85
2021/08/14 13:53:22;;;;;;;5.15;2.40;;;27.70;57.20;;;29.52;34.95;100888.53;6134484;23;20016;-83
2021/08/14 13:55:47;;;;;;;4.78;2.65;;;27.70;57.10;;;29.83;33.93;100891.19;6161075;23;20002;-85
2021/08/14 13:58:13;;;;;;;8.25;3.85;;;27.90;57.00;;;29.61;34.93;100882.72;6162118;23;20431;-84
2021/08/14 14:00:42;;;;;;;6.68;2.60;;;27.90;57.00;;;29.78;34.82;100881.09;6135512;23;20573;-85
2021/08/14 14:03:07;;;;;;;6.85;2.70;;;28.00;57.30;;;30.08;34.80;100885.00;6135518;23;20064;-85
2021/08/14 14:05:35;;;;;;;7.05;2.97;;;28.00;57.60;;;29.84;35.14;100879.16;6160456;23;20017;-84
2021/08/14 14:08:01;;;;;;;6.50;2.92;;;28.00;57.10;;;30.02;35.09;100879.09;6163166;23;20010;-84
2021/08/14 14:10:27;;;;;;;5.68;2.50;;;28.00;57.60;;;29.43;35.05;100877.84;6161219;23;20313;-85
2021/08/14 14:12:53;;;;;;;5.25;2.92;;;27.90;56.70;;;29.28;37.17;100880.56;6162534;23;20005;-86
2021/08/14 14:15:18;;;;;;;7.18;2.72;;;27.80;58.80;;;29.20;36.84;100870.66;6160601;23;20008;-84
2021/08/14 14:17:44;;;;;;;7.50;2.90;;;27.80;58.80;;;28.81;36.39;100876.56;6158523;23;20033;-88
2021/08/14 14:20:11;;;;;;;6.30;2.70;;;27.60;57.70;;;29.03;36.73;100877.22;6161089;23;20006;-85
2021/08/14 14:22:40;;;;;;;7.40;3.33;;;27.50;58.80;;;28.86;37.57;100870.19;6159608;23;20020;-84
2021/08/14 14:25:08;;;;;;;4.75;2.60;;;27.40;60.00;;;29.08;37.04;100870.81;6144863;23;20076;-85
2021/08/14 14:27:33;;;;;;;5.05;2.50;;;27.50;59.40;;;29.26;36.72;100863.00;6171503;23;20020;-87
2021/08/14 14:29:59;;;;;;;5.55;3.00;;;27.50;59.00;;;29.42;37.56;100864.72;6139089;23;20005;-86
2021/08/14 14:32:25;;;;;;;7.57;3.30;;;27.50;60.90;;;28.79;37.13;100854.06;6163461;23;20428;-88
2021/08/14 14:34:51;;;;;;;5.22;2.80;;;27.30;59.20;;;28.62;37.21;100853.53;6161468;23;20340;-86
2021/08/14 14:37:17;;;;;;;6.25;3.08;;;27.20;60.10;;;28.38;38.57;100849.69;6160275;23;20451;-84
2021/08/14 14:39:44;;;;;;;6.90;2.78;;;27.10;60.40;;;28.21;39.71;100854.13;6160573;23;20033;-82
2021/08/14 14:42:10;;;;;;;6.95;2.75;;;26.90;62.50;;;28.76;39.52;100855.03;6162903;23;20460;-86
2021/08/14 14:44:36;;;;;;;5.40;2.67;;;27.00;63.90;;;28.98;38.94;100860.59;6136285;23;20439;-85
2021/08/14 14:47:02;;;;;;;7.75;3.28;;;27.10;63.40;;;29.09;39.27;100860.94;6163521;23;20086;-86
2021/08/14 14:49:28;;;;;;;7.93;2.97;;;27.20;63.80;;;28.45;39.13;100854.34;6161500;23;20006;-85
2021/08/14 14:51:55;;;;;;;6.90;3.15;;;27.00;61.20;;;28.57;38.19;100845.56;6161481;23;20068;-87
2021/08/14 14:54:21;;;;;;;5.28;2.40;;;26.80;61.30;;;27.62;40.82;100847.50;6134241;23;20009;-83
2021/08/14 14:56:46;;;;;;;5.15;2.80;;;26.40;64.50;;;27.76;41.45;100840.38;6135036;23;20073;-86
2021/08/14 14:59:12;;;;;;;5.85;2.60;;;26.20;65.60;;;27.95;41.05;100833.44;6161500;23;20005;-85
2021/08/14 15:01:38;;;;;;;6.63;2.97;;;26.30;65.30;;;28.34;40.04;100828.94;6160835;23;20009;-87
2021/08/14 15:04:05;;;;;;;5.25;2.90;;;26.40;64.70;;;28.25;40.99;100838.34;6135999;23;20054;-85
2021/08/14 15:06:33;;;;;;;5.40;2.40;;;26.40;66.10;;;28.14;42.17;100842.94;6133922;23;20031;-85
2021/08/14 15:08:58;;;;;;;5.93;3.03;;;26.50;67.80;;;28.23;41.49;100834.31;6135199;23;20010;-84
2021/08/14 15:11:25;;;;;;;7.80;3.70;;;26.50;66.40;;;28.55;40.45;100839.47;6137145;23;20020;-87
2021/08/14 15:13:51;;;;;;;7.78;3.42;;;26.60;65.70;;;28.34;40.60;100823.19;6161344;23;20031;-85
2021/08/14 15:16:16;;;;;;;8.52;3.47;;;26.60;65.40;;;28.21;40.43;100823.34;6134112;23;20428;-86
2021/08/14 15:18:42;;;;;;;7.30;3.70;;;26.50;65.10;;;28.26;40.98;100836.25;6160642;23;20005;-85
2021/08/14 15:21:08;;;;;;;9.85;4.20;;;26.40;66.40;;;27.83;42.18;100830.69;6161357;23;20362;-84
2021/08/14 15:23:34;;;;;;;5.70;3.53;;;26.20;67.50;;;27.67;43.71;100831.75;6134803;23;20017;-82
2021/08/14 15:26:00;;;;;;;9.45;3.70;;;26.00;70.30;;;27.45;46.02;100833.88;6161550;23;20013;-83
2021/08/14 15:28:26;;;;;;;9.23;4.47;;;25.90;72.50;;;27.56;46.05;100829.28;6160826;23;20443;-85
2021/08/14 15:31:07;;;;;;;8.38;3.65;;;25.90;73.50;;;27.62;44.65;100830.28;6161529;23;20123;-80
2021/08/14 15:33:44;;;;;;;11.98;4.60;;;25.80;72.00;;;27.41;44.38;100821.69;6159850;23;20009;-85
2021/08/14 15:36:21;;;;;;;9.50;4.88;;;25.70;71.70;;;27.20;45.46;100820.44;6134298;23;20117;-83
2021/08/14 15:38:49;;;;;;;10.15;4.32;;;25.50;73.10;;;27.35;45.53;100818.66;6134008;23;20404;-83
2021/08/14 15:41:21;;;;;;;8.65;4.50;;;25.50;74.30;;;27.22;46.18;100820.78;6161062;23;20032;-85
2021/08/14 15:43:49;;;;;;;6.47;3.25;;;25.40;74.80;;;27.22;46.12;100818.72;6134333;23;20013;-86
2021/08/14 15:46:15;;;;;;;10.20;5.25;;;25.40;75.00;;;27.23;46.68;100828.91;6160697;23;20009;-85
2021/08/14 15:48:44;;;;;;;12.55;5.35;;;25.40;76.30;;;27.17;46.12;100818.50;6135789;23;20016;-86
2021/08/14 15:51:15;;;;;;;9.50;3.95;;;25.30;76.00;;;26.98;46.82;100826.19;6161383;23;20081;-83
2021/08/14 15:53:41;;;;;;;15.35;8.23;;;25.30;76.70;;;26.65;47.42;100816.38;6159545;23;20005;-84
2021/08/14 15:56:08;;;;;;;19.35;10.48;;;25.10;77.40;;;26.55;47.94;100826.94;6134969;23;20415;-85
2021/08/14 15:58:34;;;;;;;10.88;5.13;;;25.00;79.10;;;26.44;48.01;100825.72;6160831;23;20002;-85
2021/08/14 16:01:00;;;;;;;12.38;5.80;;;24.90;79.20;;;26.39;48.56;100817.72;6134528;23;20044;-84
2021/08/14 16:03:26;;;;;;;20.17;10.82;;;24.80;80.90;;;26.29;48.89;100811.13;6159762;23;20080;-85
2021/08/14 16:05:51;;;;;;;16.50;7.68;;;24.70;81.10;;;26.13;48.71;100812.03;6139889;23;20013;-84
2021/08/14 16:08:20;;;;;;;12.68;6.65;;;24.60;81.10;;;26.10;49.35;100815.81;6142817;23;20006;-85
2021/08/14 16:10:48;;;;;;;17.70;8.63;;;24.50;83.10;;;26.10;49.48;100820.75;6169460;23;20028;-81
2021/08/14 16:13:16;;;;;;;11.98;5.60;;;24.50;84.00;;;26.17;49.82;100817.66;6143343;23;20032;-83
2021/08/14 16:15:59;;;;;;;8.43;3.50;;;24.60;85.60;;;25.89;48.82;100810.81;6165607;23;20027;-85
2021/08/14 16:18:26;;;;;;;9.85;3.97;;;24.50;82.50;;;25.94;49.47;100818.03;6160316;23;20006;-84
2021/08/14 16:20:53;;;;;;;14.45;6.43;;;24.40;84.30;;;25.97;50.95;100820.78;6135037;23;20100;-85
2021/08/14 16:23:20;;;;;;;17.17;7.25;;;24.40;87.80;;;25.96;50.65;100813.44;6135083;23;20044;-85
2021/08/14 16:25:46;;;;;;;11.82;5.25;;;24.40;88.60;;;25.87;50.42;100816.19;6159337;23;20009;-85
2021/08/14 16:28:12;;;;;;;10.75;5.32;;;24.30;89.60;;;25.78;51.17;100812.44;6134753;23;20013;-85
2021/08/14 16:30:38;;;;;;;10.10;4.55;;;24.20;90.60;;;25.66;51.48;100814.81;6160907;23;20010;-84
2021/08/14 16:33:04;;;;;;;14.25;5.65;;;24.10;91.30;;;25.61;51.93;100818.25;6134990;23;20020;-84
2021/08/14 16:35:30;;;;;;;14.25;6.32;;;24.00;93.10;;;25.55;51.23;100811.53;6134172;23;20036;-86
2021/08/14 16:37:56;;;;;;;12.10;6.15;;;24.00;92.20;;;25.59;50.63;100817.91;6134013;23;20010;-86
2021/08/14 16:40:22;;;;;;;12.45;6.30;;;24.00;91.70;;;25.64;50.63;100817.34;6135058;23;20009;-84
2021/08/14 16:42:51;;;;;;;13.27;5.88;;;24.00;92.20;;;25.59;50.82;100817.91;6134955;23;20008;-85
2021/08/14 16:45:18;;;;;;;11.27;5.00;;;24.00;92.30;;;25.47;51.15;100820.72;6136136;23;20009;-84
2021/08/14 16:47:45;;;;;;;13.15;6.68;;;23.90;93.00;;;25.25;52.61;100823.44;6147400;23;20343;-86
2021/08/14 16:50:12;;;;;;;12.52;6.40;;;23.80;94.90;;;25.18;52.34;100824.47;6164249;23;20371;-89
2021/08/14 16:52:39;;;;;;;14.38;6.32;;;23.60;95.30;;;25.13;52.77;100816.47;6133509;23;20028;-86
2021/08/14 16:55:06;;;;;;;14.75;6.60;;;23.60;96.20;;;25.10;53.53;100813.72;6158201;23;20013;-86
2021/08/14 16:57:31;;;;;;;12.70;6.25;;;23.50;98.30;;;25.03;53.02;100819.63;6134223;23;20090;-89
2021/08/14 16:59:57;;;;;;;10.73;6.07;;;23.50;98.10;;;24.92;53.56;100819.94;6133990;23;20010;-87
2021/08/14 17:02:23;;;;;;;10.18;5.72;;;23.40;98.70;;;24.84;53.30;100823.47;6133560;23;20041;-89
2021/08/14 17:04:49;;;;;;;13.20;6.07;;;23.30;98.40;;;24.81;53.87;100821.47;6159676;23;20013;-88
2021/08/14 17:07:15;;;;;;;13.15;6.80;;;23.30;99.90;;;24.74;52.95;100813.09;6159476;23;20379;-88
2021/08/14 17:09:41;;;;;;;16.10;7.43;;;23.30;98.60;;;24.65;53.66;100823.16;6133366;23;20005;-87
2021/08/14 17:12:08;;;;;;;12.98;7.30;;;23.20;99.90;;;24.64;53.64;100817.88;6158343;23;20008;-85
2021/08/14 17:14:34;;;;;;;14.45;6.28;;;23.10;99.90;;;24.53;54.37;100809.59;6159173;23;20008;-88
2021/08/14 17:16:59;;;;;;;11.32;6.65;;;23.00;99.90;;;24.46;55.06;100809.81;6132921;23;20005;-88
2021/08/14 17:19:26;;;;;;;13.55;6.88;;;23.00;99.90;;;24.36;55.36;100807.25;6159618;23;20029;-87
2021/08/14 17:21:52;;;;;;;13.35;7.47;;;22.90;99.90;;;24.27;55.68;100799.31;6133741;23;20010;-85
2021/08/14 17:24:18;;;;;;;14.40;8.38;;;22.80;99.90;;;24.23;55.77;100800.66;6160538;23;20336;-85
2021/08/14 17:26:44;;;;;;;13.18;6.95;;;22.70;99.90;;;24.16;56.19;100798.78;6160164;23;20010;-87
2021/08/14 17:29:10;;;;;;;13.13;7.43;;;22.70;99.90;;;24.07;56.12;100801.44;6136899;23;20009;-86
2021/08/14 17:31:36;;;;;;;15.45;8.35;;;22.60;99.90;;;24.05;55.84;100801.06;6136866;23;20036;-87
2021/08/14 17:34:01;;;;;;;13.60;8.57;;;22.50;99.90;;;23.99;56.17;100800.81;6140783;23;20009;-87
2021/08/14 17:36:28;;;;;;;15.80;8.35;;;22.50;99.90;;;23.91;56.86;100798.59;6166378;23;20001;-87
2021/08/14 17:38:54;;;;;;;15.60;8.48;;;22.40;99.90;;;23.77;58.24;100802.59;6139853;23;20006;-88
2021/08/14 17:41:20;;;;;;;13.85;8.80;;;22.30;99.90;;;23.70;58.07;100793.41;6161731;23;20347;-87
2021/08/14 17:43:47;;;;;;;17.52;9.00;;;22.30;99.90;;;23.67;57.55;100800.00;6139423;23;20009;-86
2021/08/14 23:48:12;;;;;;;39.97;22.65;;;15.20;99.90;;;16.59;99.00;100718.28;6180494;23;20370;-86
2021/08/14 23:50:37;;;;;;;39.65;22.50;;;15.30;99.90;;;16.64;98.20;100723.53;6162464;23;20101;-87
2021/08/14 23:53:04;;;;;;;36.58;21.95;;;15.30;99.90;;;16.67;98.05;100717.09;6187466;23;20407;-87
2021/08/14 23:55:30;;;;;;;38.67;22.58;;;15.30;99.90;;;16.67;97.99;100722.75;6162935;23;20374;-87
2021/08/14 23:57:56;;;;;;;32.63;19.42;;;15.40;99.90;;;16.69;97.79;100713.91;6162078;23;20055;-86
